Terminal Aerodrome Forecast
Issued by NWS

Home | Current Version | Previous Version | Text Only | Print | Product List | Glossary On
Versions: 1 2 3 4 5 6 7 8 9 10 11 12 13 14 15 16 17 18 19 20 21 22 23 24 25 26 27 28 29 30 31 32 33 34 35 36 37 38 39 40 41 42
000
FTAK31 PANC 210308 AAB
TAFASN
TAF AMD
PASN 210308Z 2103/2124 12025G35KT 1/2SM -SN BLSN BKN015
     FM210400 11040G50KT 1/4SM SN BLSN OVC005
     FM211500 10025G35KT 1SM -SN BLSN OVC015
     FM211900 21015G22KT P6SM -SHSN BKN025=

USA.gov is the U.S. government's official web portal to all federal, state and local government web resources and services.